Time;durP1;ratioP1;P1;durP2;ratioP2;P2;SDS_P1;SDS_P2;PMS_P1;PMS_P2;Temp;Humidity;BMP_temperature;BMP_pressure;BME280_temperature;BME280_humidity;BME280_pressure;Samples;Min_cycle;Max_cycle;Signal;HPM_P1;HPM_P2
2023/07/01 00:00:58;;;;;;;8.45;2.78;;;17.60;99.90;;;;;;4915556;29;20108;-82
2023/07/01 00:03:23;;;;;;;7.60;2.50;;;17.60;99.90;;;;;;4914879;29;20459;-83
2023/07/01 00:05:50;;;;;;;5.68;3.00;;;17.60;99.90;;;;;;4899023;29;20040;-82
2023/07/01 00:08:16;;;;;;;7.78;2.95;;;17.60;99.90;;;;;;4898723;29;20523;-83
2023/07/01 00:10:41;;;;;;;6.97;2.50;;;17.70;99.90;;;;;;4899026;29;20130;-84
2023/07/01 00:13:07;;;;;;;9.15;3.00;;;17.60;99.90;;;;;;4899689;29;20134;-83
2023/07/01 00:15:34;;;;;;;7.47;2.58;;;17.70;99.90;;;;;;4916375;29;20474;-84
2023/07/01 00:17:59;;;;;;;7.90;2.70;;;17.70;99.90;;;;;;4915574;29;20127;-82
2023/07/01 00:20:26;;;;;;;7.72;2.47;;;17.70;99.90;;;;;;4884488;29;20127;-82
2023/07/01 00:22:53;;;;;;;9.43;2.90;;;17.70;99.90;;;;;;4915327;29;20123;-82
2023/07/01 00:25:19;;;;;;;7.90;2.92;;;17.60;99.90;;;;;;4915517;29;20040;-81
2023/07/01 00:27:44;;;;;;;7.97;2.70;;;17.60;99.90;;;;;;4901721;29;20052;-82
2023/07/01 00:30:11;;;;;;;6.22;2.60;;;17.60;99.90;;;;;;4918132;29;20446;-82
2023/07/01 00:32:36;;;;;;;3.88;2.72;;;17.60;99.90;;;;;;4884440;29;20869;-83
2023/07/01 00:35:02;;;;;;;5.57;2.70;;;17.60;99.90;;;;;;4884117;29;20127;-83
2023/07/01 00:37:30;;;;;;;7.20;2.83;;;17.60;99.90;;;;;;4899991;29;20074;-83
2023/07/01 00:39:56;;;;;;;9.52;2.67;;;17.60;99.90;;;;;;4905073;29;20448;-82
2023/07/01 00:42:22;;;;;;;6.93;2.60;;;17.70;99.90;;;;;;4915660;29;20040;-81
2023/07/01 00:44:47;;;;;;;7.03;2.42;;;17.70;99.90;;;;;;4884967;29;20043;-82
2023/07/01 00:47:13;;;;;;;7.35;2.67;;;17.70;99.90;;;;;;4892477;29;20048;-82
2023/07/01 00:49:40;;;;;;;7.38;2.80;;;17.70;99.90;;;;;;4931060;29;20127;-82
2023/07/01 00:52:06;;;;;;;6.35;2.72;;;17.70;99.90;;;;;;4889081;29;20175;-83
2023/07/01 00:54:34;;;;;;;5.22;3.05;;;17.70;99.90;;;;;;4922959;29;20830;-82
2023/07/01 00:57:03;;;;;;;4.45;2.60;;;17.70;99.90;;;;;;4899761;29;20138;-83
2023/07/01 00:59:32;;;;;;;6.35;2.90;;;17.70;99.90;;;;;;4900300;29;20048;-83
2023/07/01 01:02:03;;;;;;;5.55;2.63;;;17.80;99.90;;;;;;4900193;29;20139;-83
2023/07/01 01:04:34;;;;;;;7.88;2.88;;;17.80;99.90;;;;;;4915410;29;20036;-82
2023/07/01 01:07:08;;;;;;;8.07;3.08;;;17.80;99.90;;;;;;4898682;29;20044;-82
2023/07/01 01:09:48;;;;;;;7.28;2.58;;;17.80;99.90;;;;;;4914362;29;20047;-83
2023/07/01 01:12:16;;;;;;;6.68;3.03;;;17.80;99.90;;;;;;4914249;29;20115;-83
2023/07/01 01:14:43;;;;;;;8.77;2.67;;;17.80;99.90;;;;;;4899321;29;20052;-82
2023/07/01 01:17:13;;;;;;;6.57;2.60;;;17.80;99.90;;;;;;4914266;29;20054;-82
2023/07/01 01:19:48;;;;;;;6.57;2.47;;;17.80;99.90;;;;;;4901085;29;20048;-83
2023/07/01 01:22:24;;;;;;;8.10;2.63;;;17.80;99.90;;;;;;4920370;29;20468;-81
2023/07/01 01:24:54;;;;;;;5.50;2.72;;;17.80;99.90;;;;;;4898679;29;20176;-82
2023/07/01 01:27:24;;;;;;;6.05;2.92;;;17.80;99.90;;;;;;4898979;29;20398;-83
2023/07/01 01:29:50;;;;;;;7.47;3.25;;;17.80;99.90;;;;;;4914164;29;20129;-83
2023/07/01 01:32:16;;;;;;;4.65;2.72;;;17.70;99.90;;;;;;4914433;29;20040;-82
2023/07/01 01:34:42;;;;;;;7.60;3.13;;;17.70;99.90;;;;;;4914994;29;20398;-84
2023/07/01 01:37:21;;;;;;;7.47;3.03;;;17.70;99.90;;;;;;4899104;29;20498;-83
2023/07/01 01:39:51;;;;;;;7.13;3.00;;;17.70;99.90;;;;;;4885749;29;20104;-83
2023/07/01 01:42:27;;;;;;;7.05;3.03;;;17.70;99.90;;;;;;4914802;29;20071;-83
2023/07/01 01:44:55;;;;;;;6.70;2.90;;;17.70;99.90;;;;;;4915397;29;20058;-83
2023/07/01 01:47:29;;;;;;;8.85;3.40;;;17.70;99.90;;;;;;4914577;29;20192;-83
2023/07/01 01:50:01;;;;;;;6.00;3.50;;;17.70;99.90;;;;;;4914786;29;20381;-82
2023/07/01 01:52:28;;;;;;;11.40;3.17;;;17.70;99.90;;;;;;4916813;29;20048;-82
2023/07/01 01:54:56;;;;;;;6.20;3.10;;;17.70;99.90;;;;;;4902166;29;20055;-82
2023/07/01 01:57:23;;;;;;;6.47;3.08;;;17.70;99.90;;;;;;4917693;29;20039;-84
2023/07/01 01:59:49;;;;;;;6.45;3.13;;;17.70;99.90;;;;;;4902075;29;20063;-82
2023/07/01 02:02:15;;;;;;;10.30;3.58;;;17.70;99.90;;;;;;4917034;29;20039;-85
2023/07/01 02:04:40;;;;;;;7.30;4.00;;;17.70;99.90;;;;;;4871484;29;20032;-84
2023/07/01 02:07:06;;;;;;;4.80;3.38;;;17.70;99.90;;;;;;4886202;29;20042;-83
2023/07/01 02:09:32;;;;;;;11.57;3.88;;;17.70;99.90;;;;;;4886269;29;20410;-82
2023/07/01 02:11:58;;;;;;;7.97;3.90;;;17.70;99.90;;;;;;4910080;29;20050;-83
2023/07/01 02:14:24;;;;;;;6.88;4.07;;;17.70;99.90;;;;;;4908765;29;20487;-84
2023/07/01 02:16:50;;;;;;;6.20;4.35;;;17.60;99.90;;;;;;4886562;29;20048;-85
2023/07/01 02:19:17;;;;;;;6.85;3.90;;;17.60;99.90;;;;;;4901837;29;20055;-84
2023/07/01 02:21:42;;;;;;;8.95;4.15;;;17.50;99.90;;;;;;4886558;29;20048;-86
2023/07/01 02:24:09;;;;;;;8.52;4.18;;;17.40;99.90;;;;;;4886393;29;20382;-84
2023/07/01 02:26:35;;;;;;;9.63;4.40;;;17.40;99.90;;;;;;4918186;29;20051;-83
2023/07/01 02:29:01;;;;;;;8.15;4.28;;;17.30;99.90;;;;;;4886666;29;20047;-84
2023/07/01 02:31:26;;;;;;;11.15;4.63;;;17.20;99.90;;;;;;4917482;29;20521;-82
2023/07/01 02:34:00;;;;;;;7.20;4.50;;;17.20;99.90;;;;;;4917531;29;20512;-85
2023/07/01 02:36:26;;;;;;;6.50;4.00;;;17.10;99.90;;;;;;4902154;29;20043;-85
2023/07/01 02:38:51;;;;;;;6.38;4.15;;;17.00;99.90;;;;;;4917099;29;20404;-83
2023/07/01 02:41:17;;;;;;;8.02;4.57;;;17.00;99.90;;;;;;4901384;29;20071;-83
2023/07/01 02:43:43;;;;;;;7.95;3.92;;;17.00;99.90;;;;;;4903719;29;20046;-84
2023/07/01 02:46:08;;;;;;;4.88;3.83;;;17.00;99.90;;;;;;4905390;29;20044;-82
2023/07/01 02:48:34;;;;;;;7.45;4.45;;;17.00;99.90;;;;;;4920834;29;20047;-84
2023/07/01 02:51:00;;;;;;;8.43;4.40;;;17.00;99.90;;;;;;4889575;29;20043;-84
2023/07/01 02:53:26;;;;;;;5.20;3.67;;;17.10;99.90;;;;;;4920751;29;20070;-83
2023/07/01 02:55:52;;;;;;;12.00;3.90;;;17.10;99.90;;;;;;4921156;29;20052;-83
2023/07/01 02:58:19;;;;;;;7.25;3.95;;;17.10;99.90;;;;;;4905181;29;20130;-82
2023/07/01 03:00:46;;;;;;;8.30;3.47;;;17.10;99.90;;;;;;4907963;29;20035;-82
2023/07/01 03:03:12;;;;;;;6.00;3.88;;;17.20;99.90;;;;;;4921286;29;20048;-84
2023/07/01 03:05:39;;;;;;;7.70;3.45;;;17.10;99.90;;;;;;4920617;29;20047;-82
2023/07/01 03:08:05;;;;;;;6.03;3.67;;;17.20;99.90;;;;;;4905307;29;20087;-81
2023/07/01 03:10:34;;;;;;;8.63;3.70;;;17.20;99.90;;;;;;4920894;29;20118;-83
2023/07/01 03:13:00;;;;;;;6.20;4.15;;;17.10;99.90;;;;;;4920773;29;20044;-84
2023/07/01 03:15:26;;;;;;;7.80;4.00;;;17.20;99.90;;;;;;4904840;29;20127;-83
2023/07/01 03:17:52;;;;;;;9.65;3.70;;;17.20;99.90;;;;;;4904371;29;20044;-82
2023/07/01 03:20:24;;;;;;;8.52;3.92;;;17.20;99.90;;;;;;4920236;29;20040;-84
2023/07/01 03:22:51;;;;;;;5.25;3.72;;;17.20;99.90;;;;;;4904277;29;20075;-83
2023/07/01 03:25:17;;;;;;;7.05;3.75;;;17.20;99.90;;;;;;4904178;29;20075;-83
2023/07/01 03:27:43;;;;;;;8.75;4.32;;;17.10;99.90;;;;;;4869763;29;20036;-83
2023/07/01 03:30:13;;;;;;;10.45;3.95;;;17.10;99.90;;;;;;4885759;29;20051;-83
2023/07/01 03:32:43;;;;;;;10.50;3.95;;;17.10;99.90;;;;;;4919897;29;20122;-82
2023/07/01 03:35:10;;;;;;;9.30;4.00;;;17.10;99.90;;;;;;4919968;29;20587;-82
2023/07/01 03:37:37;;;;;;;9.20;4.47;;;17.10;99.90;;;;;;4904346;29;20039;-84
2023/07/01 03:40:13;;;;;;;6.30;3.85;;;17.00;99.90;;;;;;4904718;29;20044;-83
2023/07/01 03:42:42;;;;;;;7.22;3.80;;;17.00;99.90;;;;;;4903708;29;20102;-87
2023/07/01 03:45:10;;;;;;;6.95;4.10;;;16.90;99.90;;;;;;4904630;29;20032;-83
2023/07/01 03:47:42;;;;;;;10.02;4.30;;;16.80;99.90;;;;;;4919810;29;20084;-82
2023/07/01 03:50:09;;;;;;;6.80;4.13;;;16.70;99.90;;;;;;4904422;29;20516;-83
2023/07/01 03:52:38;;;;;;;7.50;4.50;;;16.60;99.90;;;;;;4905376;29;20126;-84
2023/07/01 03:55:06;;;;;;;7.03;4.60;;;16.50;99.90;;;;;;4903623;29;20143;-84
2023/07/01 03:57:35;;;;;;;5.75;4.70;;;16.40;99.90;;;;;;4919445;29;20051;-82
2023/07/01 04:00:08;;;;;;;7.90;4.25;;;16.40;99.90;;;;;;4903831;29;20520;-83
2023/07/01 04:02:37;;;;;;;9.27;4.43;;;16.30;99.90;;;;;;4919613;29;20088;-82
2023/07/01 04:05:09;;;;;;;6.30;4.28;;;16.20;99.90;;;;;;4920292;29;20589;-84
2023/07/01 04:07:36;;;;;;;7.85;4.15;;;16.20;99.90;;;;;;4889435;29;20043;-83
2023/07/01 04:10:05;;;;;;;8.13;4.65;;;16.10;99.90;;;;;;4919558;29;20048;-84
2023/07/01 04:12:32;;;;;;;6.97;4.47;;;16.10;99.90;;;;;;4919828;29;20048;-83
2023/07/01 04:14:59;;;;;;;7.38;4.88;;;16.10;99.90;;;;;;4888546;29;20134;-84
2023/07/01 04:17:24;;;;;;;5.63;4.43;;;16.10;99.90;;;;;;4919443;29;20043;-82
2023/07/01 04:19:50;;;;;;;6.40;4.38;;;16.00;99.90;;;;;;4872736;29;20055;-83
2023/07/01 04:22:16;;;;;;;6.57;4.80;;;15.90;99.90;;;;;;4903704;29;20075;-83
2023/07/01 04:24:41;;;;;;;6.35;5.00;;;15.90;99.90;;;;;;4903869;29;20126;-83
2023/07/01 04:27:07;;;;;;;7.20;4.88;;;15.90;99.90;;;;;;4919308;29;20043;-83
2023/07/01 04:29:33;;;;;;;5.40;4.22;;;15.90;99.90;;;;;;4903749;29;20047;-85
2023/07/01 04:31:58;;;;;;;7.97;4.35;;;15.90;99.90;;;;;;4919116;29;20122;-83
2023/07/01 04:34:24;;;;;;;6.50;4.47;;;15.90;99.90;;;;;;4888243;29;20052;-83
2023/07/01 04:36:50;;;;;;;5.80;4.47;;;15.90;99.90;;;;;;4888224;29;20043;-83
2023/07/01 04:39:15;;;;;;;6.55;4.50;;;15.90;99.90;;;;;;4918790;29;20044;-84
2023/07/01 04:41:41;;;;;;;6.15;4.55;;;15.90;99.90;;;;;;4902962;29;20511;-83
2023/07/01 04:44:07;;;;;;;7.75;4.55;;;15.90;99.90;;;;;;4887179;29;20118;-84
2023/07/01 04:46:32;;;;;;;6.45;4.05;;;15.90;99.90;;;;;;4902649;29;20062;-84
2023/07/01 04:49:01;;;;;;;8.95;4.25;;;15.90;99.90;;;;;;4902745;29;20055;-84
2023/07/01 04:51:27;;;;;;;7.95;4.45;;;15.90;99.90;;;;;;4887469;29;20048;-83
2023/07/01 04:53:52;;;;;;;7.13;4.50;;;15.90;99.90;;;;;;4902637;29;20118;-84
2023/07/01 04:56:23;;;;;;;5.88;4.60;;;15.90;99.90;;;;;;4902852;29;20489;-84
2023/07/01 04:58:50;;;;;;;7.47;4.30;;;15.90;99.90;;;;;;4902710;29;20055;-84
2023/07/01 05:01:15;;;;;;;6.13;4.50;;;15.90;99.90;;;;;;4919035;29;20641;-83
2023/07/01 05:03:41;;;;;;;7.20;4.40;;;16.00;99.90;;;;;;4903023;29;20047;-81
2023/07/01 05:06:07;;;;;;;8.07;4.72;;;16.00;99.90;;;;;;4901832;29;20126;-82
2023/07/01 05:08:32;;;;;;;6.63;4.68;;;16.00;99.90;;;;;;4918652;29;20066;-83
2023/07/01 05:10:58;;;;;;;7.70;4.18;;;16.00;99.90;;;;;;4902667;29;20126;-83
2023/07/01 05:13:24;;;;;;;6.38;4.15;;;16.00;99.90;;;;;;4902735;29;20047;-84
2023/07/01 05:15:49;;;;;;;7.82;4.20;;;16.00;99.90;;;;;;4903053;29;20409;-82
2023/07/01 05:18:15;;;;;;;7.90;4.35;;;16.00;99.90;;;;;;4902784;29;20130;-83
2023/07/01 05:20:41;;;;;;;6.03;4.90;;;16.10;99.90;;;;;;4903315;29;20043;-82
2023/07/01 05:23:06;;;;;;;7.93;4.88;;;16.10;99.90;;;;;;4908287;29;20040;-82
2023/07/01 05:25:32;;;;;;;8.07;5.00;;;16.10;99.90;;;;;;4887017;29;20039;-84
2023/07/01 05:27:58;;;;;;;8.20;4.70;;;16.10;99.90;;;;;;4902635;29;20039;-84
2023/07/01 05:30:23;;;;;;;7.45;4.20;;;16.20;99.90;;;;;;4887169;29;20048;-82
2023/07/01 05:32:49;;;;;;;7.93;4.75;;;16.20;99.90;;;;;;4901975;29;20553;-83
2023/07/01 05:35:15;;;;;;;5.90;3.90;;;16.20;99.90;;;;;;4889935;29;20101;-83
2023/07/01 05:37:40;;;;;;;9.60;4.35;;;16.20;99.90;;;;;;4902241;29;20074;-83
2023/07/01 05:40:07;;;;;;;7.25;4.75;;;16.20;99.90;;;;;;4902279;29;20044;-83
2023/07/01 05:42:32;;;;;;;6.75;4.25;;;16.20;99.90;;;;;;4867965;29;20040;-83
2023/07/01 05:44:58;;;;;;;6.25;4.60;;;16.20;99.90;;;;;;4931408;29;20050;-84
2023/07/01 05:47:24;;;;;;;6.40;4.82;;;16.30;99.90;;;;;;4887129;29;20047;-83
2023/07/01 05:49:49;;;;;;;6.63;4.43;;;16.30;99.90;;;;;;4918301;29;20056;-83
2023/07/01 05:52:15;;;;;;;8.10;4.68;;;16.30;99.90;;;;;;4887747;29;20482;-83
2023/07/01 05:54:41;;;;;;;8.48;4.43;;;16.30;99.90;;;;;;4898711;29;20111;-83
2023/07/01 05:57:06;;;;;;;7.80;5.00;;;16.30;99.90;;;;;;4914508;29;20075;-81
2023/07/01 05:59:32;;;;;;;8.02;4.65;;;16.30;99.90;;;;;;4882760;29;20091;-83
2023/07/01 06:01:58;;;;;;;10.30;5.00;;;16.40;99.90;;;;;;4883088;29;20039;-83
2023/07/01 06:04:23;;;;;;;7.90;5.20;;;16.40;99.90;;;;;;4897757;29;20462;-82
2023/07/01 06:06:49;;;;;;;7.50;5.00;;;16.40;99.90;;;;;;4897389;29;20075;-84
2023/07/01 06:09:16;;;;;;;6.03;4.97;;;16.50;99.90;;;;;;4882682;29;20067;-83
2023/07/01 06:11:41;;;;;;;7.25;4.82;;;16.50;99.90;;;;;;4897147;29;20048;-82
2023/07/01 06:14:07;;;;;;;6.45;5.07;;;16.50;99.90;;;;;;4899844;29;20190;-82
2023/07/01 06:16:33;;;;;;;5.57;4.60;;;16.50;99.90;;;;;;4869750;29;20047;-83
2023/07/01 06:18:59;;;;;;;7.07;4.57;;;16.50;99.90;;;;;;4912211;29;20047;-82
2023/07/01 06:21:25;;;;;;;9.13;5.25;;;16.60;99.90;;;;;;4881380;29;20100;-83
2023/07/01 06:23:54;;;;;;;9.95;5.68;;;16.60;99.90;;;;;;4897687;29;20048;-83
2023/07/01 06:26:20;;;;;;;7.25;5.57;;;16.60;99.90;;;;;;4903820;29;20047;-81
2023/07/01 06:28:46;;;;;;;8.55;5.25;;;16.60;99.90;;;;;;4904130;29;20052;-83
2023/07/01 06:31:11;;;;;;;6.68;5.40;;;16.60;99.90;;;;;;4882550;29;20048;-82
2023/07/01 06:33:38;;;;;;;9.18;5.32;;;16.60;99.90;;;;;;4914005;29;20051;-82
2023/07/01 06:36:05;;;;;;;10.65;5.90;;;16.50;99.90;;;;;;4882794;29;20048;-83
2023/07/01 06:38:30;;;;;;;8.60;6.05;;;16.60;99.90;;;;;;4898284;29;20056;-85
2023/07/01 06:40:56;;;;;;;6.53;5.38;;;16.50;99.90;;;;;;4884409;29;20043;-84
2023/07/01 06:43:22;;;;;;;8.95;5.43;;;16.50;99.90;;;;;;4913778;29;20569;-83
2023/07/01 06:45:48;;;;;;;8.13;6.15;;;16.60;99.90;;;;;;4898246;29;20036;-84
2023/07/01 06:48:13;;;;;;;8.10;6.20;;;16.50;99.90;;;;;;4898184;29;20080;-84
2023/07/01 06:50:39;;;;;;;7.55;6.30;;;16.60;99.90;;;;;;4898339;29;20052;-84
2023/07/01 06:53:06;;;;;;;9.70;6.57;;;16.50;99.90;;;;;;4913278;29;20418;-83
2023/07/01 06:55:31;;;;;;;9.43;6.75;;;16.50;99.90;;;;;;4882267;29;20036;-85
2023/07/01 06:57:59;;;;;;;8.02;6.95;;;16.50;99.90;;;;;;4882580;29;20059;-83
2023/07/01 07:00:25;;;;;;;8.43;7.57;;;16.50;99.90;;;;;;4898702;29;20173;-85
2023/07/01 07:02:51;;;;;;;10.60;7.28;;;16.40;99.90;;;;;;4883045;29;20076;-86
2023/07/01 07:05:16;;;;;;;10.32;6.72;;;16.40;99.90;;;;;;4886729;29;20044;-82
2023/07/01 07:07:42;;;;;;;8.95;7.03;;;16.40;99.90;;;;;;4882521;29;20036;-85
2023/07/01 07:10:08;;;;;;;9.13;6.85;;;16.30;99.90;;;;;;4882455;29;20044;-84
2023/07/01 07:12:34;;;;;;;10.80;7.95;;;16.30;99.90;;;;;;4913561;29;20051;-83
2023/07/01 07:14:59;;;;;;;9.75;7.53;;;16.30;99.90;;;;;;4905679;29;20055;-83
2023/07/01 07:17:25;;;;;;;9.40;7.45;;;16.30;99.90;;;;;;4912944;29;20040;-84
2023/07/01 07:19:51;;;;;;;8.77;7.78;;;16.30;99.90;;;;;;4912579;29;20110;-83
2023/07/01 07:22:16;;;;;;;7.50;6.78;;;16.30;99.90;;;;;;4912291;29;20048;-83
2023/07/01 07:24:42;;;;;;;7.65;6.85;;;16.30;99.90;;;;;;4912892;29;20040;-84
2023/07/01 07:27:08;;;;;;;9.38;7.78;;;16.40;99.90;;;;;;4879460;29;20048;-84
2023/07/01 07:29:33;;;;;;;9.65;7.25;;;16.40;99.90;;;;;;4879465;29;20450;-85
2023/07/01 07:31:59;;;;;;;8.55;7.57;;;16.40;99.90;;;;;;4916249;29;20083;-85
2023/07/01 07:34:25;;;;;;;9.57;7.60;;;16.50;99.90;;;;;;4884644;29;20044;-85
2023/07/01 07:36:52;;;;;;;10.05;7.60;;;16.50;99.90;;;;;;4916756;29;20051;-85
2023/07/01 07:39:18;;;;;;;10.35;8.15;;;16.60;99.90;;;;;;4900939;29;20048;-82
2023/07/01 07:41:44;;;;;;;7.63;6.70;;;16.60;99.90;;;;;;4901074;29;20051;-84
2023/07/01 07:44:10;;;;;;;7.50;6.78;;;16.50;99.90;;;;;;4885579;29;20087;-83
2023/07/01 07:46:38;;;;;;;7.88;7.07;;;16.60;99.90;;;;;;4885388;29;20123;-83
2023/07/01 07:49:04;;;;;;;13.15;7.68;;;16.60;99.90;;;;;;4919253;29;20043;-83
2023/07/01 07:51:30;;;;;;;10.02;7.45;;;16.50;99.90;;;;;;4919656;29;20047;-83
2023/07/01 07:53:56;;;;;;;9.25;6.97;;;16.60;99.90;;;;;;4900749;29;20203;-83
2023/07/01 07:56:22;;;;;;;8.32;7.07;;;16.60;99.90;;;;;;4901016;29;20123;-85
2023/07/01 07:58:48;;;;;;;9.43;7.65;;;16.60;99.90;;;;;;4900578;29;20052;-85
2023/07/01 08:01:14;;;;;;;8.15;6.70;;;16.50;99.90;;;;;;4884428;29;20044;-85
2023/07/01 08:03:40;;;;;;;9.80;7.75;;;16.60;99.90;;;;;;4900040;29;20036;-83
2023/07/01 08:06:06;;;;;;;8.48;7.68;;;16.60;99.90;;;;;;4884447;29;20040;-85
2023/07/01 08:08:32;;;;;;;9.18;8.00;;;16.60;99.90;;;;;;4899934;29;20670;-84
2023/07/01 08:10:59;;;;;;;8.57;7.65;;;16.60;99.90;;;;;;4900320;29;20954;-84
2023/07/01 08:13:25;;;;;;;8.68;7.75;;;16.70;99.90;;;;;;4916096;29;20047;-85
2023/07/01 08:15:50;;;;;;;9.40;7.70;;;16.70;99.90;;;;;;4899947;29;20127;-84
2023/07/01 08:18:18;;;;;;;10.93;7.60;;;16.70;99.90;;;;;;4900306;29;20509;-84
2023/07/01 08:20:44;;;;;;;9.80;7.47;;;16.70;99.90;;;;;;4919693;29;20127;-83
2023/07/01 08:23:11;;;;;;;9.18;7.90;;;16.70;99.90;;;;;;4907942;29;20036;-83
2023/07/01 08:25:41;;;;;;;9.00;7.40;;;16.80;99.90;;;;;;4914869;29;20065;-82
2023/07/01 08:28:07;;;;;;;8.88;7.50;;;16.80;99.90;;;;;;4914651;29;20114;-84
2023/07/01 08:30:33;;;;;;;9.77;8.75;;;16.80;99.90;;;;;;4924411;29;20044;-83
2023/07/01 08:32:58;;;;;;;10.05;7.50;;;16.80;99.90;;;;;;4898554;29;20414;-83
2023/07/01 08:35:24;;;;;;;8.73;7.68;;;16.90;99.90;;;;;;4899625;29;20044;-82
2023/07/01 08:37:51;;;;;;;12.82;8.23;;;16.90;99.90;;;;;;4915021;29;20040;-84
2023/07/01 08:40:16;;;;;;;8.07;7.25;;;16.90;99.90;;;;;;4869070;29;20052;-84
2023/07/01 08:42:50;;;;;;;9.18;7.95;;;16.90;99.90;;;;;;4899918;29;20512;-83
2023/07/01 08:45:16;;;;;;;9.27;7.53;;;17.00;99.90;;;;;;4915141;29;20091;-83
2023/07/01 08:47:42;;;;;;;8.55;7.60;;;17.00;99.90;;;;;;4915535;29;20036;-86
2023/07/01 08:50:08;;;;;;;8.77;7.45;;;17.00;99.90;;;;;;4915825;29;20450;-84
2023/07/01 08:52:50;;;;;;;9.82;7.75;;;17.00;99.90;;;;;;4915788;29;20076;-84
2023/07/01 08:55:16;;;;;;;10.05;8.00;;;17.10;99.90;;;;;;4915235;29;20048;-83
2023/07/01 08:57:42;;;;;;;8.38;7.43;;;17.10;99.90;;;;;;4883739;29;20048;-83
2023/07/01 09:00:10;;;;;;;12.43;7.75;;;17.00;99.90;;;;;;4915060;29;20090;-83
2023/07/01 09:02:36;;;;;;;8.63;7.72;;;17.10;99.90;;;;;;4915387;29;20554;-82
2023/07/01 09:05:03;;;;;;;8.82;7.93;;;17.00;99.90;;;;;;4915851;29;20042;-84
2023/07/01 09:07:29;;;;;;;9.23;8.05;;;17.00;99.90;;;;;;4914791;29;20036;-84
2023/07/01 09:09:56;;;;;;;10.48;8.02;;;17.10;99.90;;;;;;4915242;29;20092;-84
2023/07/01 09:12:26;;;;;;;8.98;7.32;;;17.10;99.90;;;;;;4899375;29;20051;-83
2023/07/01 09:15:02;;;;;;;10.05;7.85;;;17.20;99.90;;;;;;4899204;29;20056;-83
2023/07/01 09:17:39;;;;;;;8.50;7.10;;;17.20;99.90;;;;;;4899133;29;20084;-83
2023/07/01 09:20:07;;;;;;;8.30;7.15;;;17.20;99.90;;;;;;4912735;29;20048;-83
2023/07/01 09:22:34;;;;;;;9.25;7.75;;;17.20;99.90;;;;;;4883651;29;20367;-83
2023/07/01 09:25:00;;;;;;;8.73;6.88;;;17.30;99.90;;;;;;4899540;29;20119;-85
2023/07/01 09:27:40;;;;;;;8.35;7.15;;;17.30;99.90;;;;;;4898996;29;20130;-84
2023/07/01 09:30:29;;;;;;;9.93;7.90;;;17.30;99.90;;;;;;4927984;29;20075;-83
2023/07/01 09:33:12;;;;;;;8.50;7.35;;;17.30;99.90;;;;;;4914695;29;20047;-84
2023/07/01 09:35:42;;;;;;;7.75;6.97;;;17.30;99.90;;;;;;4887510;29;20084;-83
2023/07/01 09:38:08;;;;;;;8.25;7.35;;;17.30;99.90;;;;;;4914034;29;20046;-82
2023/07/01 09:40:34;;;;;;;9.10;7.38;;;17.30;99.90;;;;;;4903430;29;20036;-84
2023/07/01 09:42:59;;;;;;;8.88;7.97;;;17.40;99.90;;;;;;4898721;29;20513;-84
2023/07/01 09:45:26;;;;;;;8.93;7.82;;;17.40;99.90;;;;;;4900208;29;20095;-83
2023/07/01 09:47:52;;;;;;;9.57;7.32;;;17.40;99.90;;;;;;4905189;29;20453;-83
2023/07/01 09:50:29;;;;;;;8.90;7.50;;;17.40;99.90;;;;;;4898719;29;20123;-83
2023/07/01 09:52:56;;;;;;;8.40;6.90;;;17.50;99.90;;;;;;4916140;29;20052;-84
2023/07/01 09:55:23;;;;;;;8.93;7.38;;;17.50;99.90;;;;;;4901809;29;20102;-83
2023/07/01 09:57:49;;;;;;;9.18;7.22;;;17.50;99.90;;;;;;4901908;29;20054;-83
2023/07/01 10:00:16;;;;;;;7.25;6.53;;;17.50;99.90;;;;;;4886345;29;20055;-83
2023/07/01 10:02:45;;;;;;;8.02;7.20;;;17.50;99.90;;;;;;4917656;29;20127;-82
2023/07/01 10:05:12;;;;;;;8.68;6.05;;;17.50;99.90;;;;;;4916997;29;20042;-83
2023/07/01 10:07:42;;;;;;;8.63;6.60;;;17.50;99.90;;;;;;4917228;29;20043;-83
2023/07/01 10:10:12;;;;;;;7.53;6.60;;;17.50;99.90;;;;;;4901400;29;20401;-82
2023/07/01 10:12:41;;;;;;;8.25;6.97;;;17.50;99.90;;;;;;4886205;29;20488;-81
2023/07/01 10:15:09;;;;;;;9.35;7.55;;;17.50;99.90;;;;;;4917087;29;20047;-84
2023/07/01 10:17:52;;;;;;;9.10;6.80;;;17.50;99.90;;;;;;4916803;29;20517;-83
2023/07/01 10:20:34;;;;;;;7.53;6.80;;;17.50;99.90;;;;;;4914761;29;20040;-84
2023/07/01 10:23:03;;;;;;;7.35;6.55;;;17.60;99.90;;;;;;4899868;29;20389;-84
2023/07/01 10:25:31;;;;;;;9.10;7.00;;;17.60;99.90;;;;;;4916961;29;20098;-82
2023/07/01 10:28:00;;;;;;;8.20;7.18;;;17.70;99.90;;;;;;4915132;29;20046;-83
2023/07/01 10:30:27;;;;;;;8.48;7.45;;;17.80;99.90;;;;;;4917379;29;20039;-84
2023/07/01 10:32:52;;;;;;;9.52;7.32;;;17.80;99.90;;;;;;4919353;29;20039;-85
2023/07/01 10:35:18;;;;;;;7.93;6.85;;;17.80;99.90;;;;;;4918163;29;20038;-84
2023/07/01 10:38:19;;;;;;;10.57;7.50;;;17.90;99.90;;;;;;4902641;29;20059;-84
2023/07/01 10:40:45;;;;;;;9.03;7.13;;;17.90;99.90;;;;;;4903080;29;20035;-84
2023/07/01 10:43:24;;;;;;;8.10;7.30;;;17.90;99.90;;;;;;4887059;29;20047;-83
2023/07/01 10:46:23;;;;;;;8.73;7.80;;;17.90;99.90;;;;;;4918301;29;20077;-83
2023/07/01 10:49:07;;;;;;;9.40;7.78;;;17.90;99.90;;;;;;4860387;29;20048;-82
2023/07/01 10:51:45;;;;;;;10.60;7.55;;;17.90;99.90;;;;;;4913450;29;20405;-83
2023/07/01 10:54:10;;;;;;;10.98;7.93;;;17.90;99.90;;;;;;4910921;29;20052;-84
2023/07/01 10:57:01;;;;;;;8.45;7.43;;;18.00;99.90;;;;;;4916883;29;20485;-83
2023/07/01 10:59:28;;;;;;;11.68;8.00;;;18.00;99.90;;;;;;4917058;29;20409;-85
2023/07/01 11:02:01;;;;;;;8.85;7.47;;;18.00;99.90;;;;;;4918093;29;20047;-82
2023/07/01 11:04:52;;;;;;;12.00;8.82;;;18.00;99.90;;;;;;4890000;29;20115;-83
2023/07/01 11:07:25;;;;;;;9.57;8.05;;;18.10;99.90;;;;;;4919686;29;20548;-82
2023/07/01 11:09:51;;;;;;;12.02;8.73;;;18.00;99.90;;;;;;4905393;29;20048;-83
2023/07/01 11:12:17;;;;;;;11.25;9.05;;;18.00;99.90;;;;;;4904813;29;20043;-84
2023/07/01 11:14:43;;;;;;;12.43;8.93;;;18.10;99.90;;;;;;4873961;29;20103;-83
2023/07/01 11:17:11;;;;;;;9.30;8.13;;;18.10;99.90;;;;;;4920500;29;20485;-84
2023/07/01 11:19:37;;;;;;;10.43;8.43;;;18.10;99.90;;;;;;4889402;29;20051;-85
2023/07/01 11:22:04;;;;;;;9.98;8.30;;;18.10;99.90;;;;;;4920484;29;20083;-85
2023/07/01 11:24:30;;;;;;;11.40;8.57;;;18.10;99.90;;;;;;4904364;29;20079;-82
2023/07/01 11:27:02;;;;;;;9.63;7.90;;;18.10;99.90;;;;;;4904474;29;20134;-86
2023/07/01 11:29:28;;;;;;;10.00;7.60;;;18.10;99.90;;;;;;4904292;29;20044;-85
2023/07/01 11:32:05;;;;;;;13.30;8.48;;;18.10;99.90;;;;;;4920000;29;20043;-84
2023/07/01 11:34:31;;;;;;;9.20;7.53;;;18.10;99.90;;;;;;4896627;29;20052;-83
2023/07/01 11:36:59;;;;;;;9.63;7.93;;;18.10;99.90;;;;;;4919370;29;20050;-84
2023/07/01 11:39:26;;;;;;;8.93;7.90;;;18.20;99.90;;;;;;4919887;29;20055;-85
2023/07/01 11:41:56;;;;;;;9.25;7.07;;;18.20;99.90;;;;;;4903968;29;20366;-85
2023/07/01 11:44:24;;;;;;;8.60;7.43;;;18.20;99.90;;;;;;4919354;29;20053;-86
2023/07/01 11:46:51;;;;;;;9.60;7.40;;;18.20;99.90;;;;;;4887559;29;20051;-82
2023/07/01 11:49:18;;;;;;;8.93;7.70;;;18.20;99.90;;;;;;4919375;29;20047;-84
2023/07/01 11:51:50;;;;;;;10.45;7.72;;;18.30;99.90;;;;;;4903254;29;20143;-83
2023/07/01 11:54:17;;;;;;;10.00;7.45;;;18.30;99.90;;;;;;4919834;29;20071;-85
2023/07/01 11:56:44;;;;;;;9.57;7.65;;;18.30;99.90;;;;;;4904115;29;20139;-85
2023/07/01 11:59:27;;;;;;;8.27;7.03;;;18.30;99.90;;;;;;4903705;29;20040;-86
2023/07/01 12:01:53;;;;;;;9.40;6.32;;;18.30;99.90;;;;;;4918524;29;20067;-87
2023/07/01 12:04:18;;;;;;;7.53;6.22;;;18.40;99.90;;;;;;4888635;29;20071;-86
2023/07/01 12:06:45;;;;;;;7.95;6.45;;;18.40;99.90;;;;;;4919827;29;20043;-87
2023/07/01 12:09:27;;;;;;;7.53;6.00;;;18.50;99.90;;;;;;4903652;29;20055;-86
2023/07/01 12:11:54;;;;;;;7.68;5.60;;;18.60;99.90;;;;;;4919459;29;20048;-86
2023/07/01 12:14:21;;;;;;;5.93;5.25;;;18.60;99.90;;;;;;4903377;29;20055;-85
2023/07/01 12:16:49;;;;;;;6.32;5.40;;;18.70;99.90;;;;;;4903249;29;20054;-85
2023/07/01 12:19:20;;;;;;;6.57;4.70;;;18.70;99.90;;;;;;4918879;29;20043;-85
2023/07/01 12:21:46;;;;;;;8.43;5.05;;;18.70;99.90;;;;;;4918722;29;20039;-87
2023/07/01 12:24:23;;;;;;;5.60;4.07;;;18.70;99.90;;;;;;4887113;29;20099;-87
2023/07/01 12:26:57;;;;;;;5.20;3.67;;;18.70;99.90;;;;;;4918580;29;20046;-85
2023/07/01 12:29:24;;;;;;;4.40;3.97;;;18.70;99.90;;;;;;4902759;29;20047;-87
2023/07/01 12:31:50;;;;;;;5.90;4.28;;;18.80;99.90;;;;;;4907376;29;20070;-86
2023/07/01 12:34:17;;;;;;;4.47;4.07;;;18.90;99.90;;;;;;4890998;29;20162;-86
2023/07/01 12:36:44;;;;;;;6.07;4.35;;;19.00;99.90;;;;;;4914702;29;20524;-86
2023/07/01 12:39:10;;;;;;;4.20;3.80;;;19.10;99.90;;;;;;4915292;29;20043;-86
2023/07/01 12:41:36;;;;;;;5.35;4.57;;;19.30;99.90;;;;;;4918953;29;20389;-85
2023/07/01 12:44:08;;;;;;;5.90;3.85;;;19.30;99.90;;;;;;4920581;29;20040;-85
2023/07/01 12:46:34;;;;;;;8.35;4.35;;;19.40;99.90;;;;;;4909598;29;20513;-85
2023/07/01 12:49:00;;;;;;;4.90;3.40;;;19.40;99.90;;;;;;4917756;29;20046;-85